KGVT

Majors Airport

Greenville, Texas, USA
METAR KGVT 151910Z AUTO 31005KT 10SM CLR 12/M02 A3025 RMK AO2
Observed Flight Rules
Dec-15 @ 19:10 UTC (44 minutes ago) Visual Flight Rules
Wind Visibility Clouds
310° at 5 knots 10 miles
  • Clear skies
Temperatures Readings
Current 12°C / 54°F
Dewpoint -2°C / 28°F
Humidity 38%
Altimeter 30.25" Hg
Pressure 1024 hPa
Elevation 163
METAR KGVT 151910Z AUTO 31005KT 10SM CLR 12/M02 A3025 RMK AO2
Observed Flight Rules
Dec-15 @ 19:10 UTC
(44 minutes ago)
VFR
Wind Visibility
310° at 5 knots 10 miles
Clouds
  • Clear skies
Temperature Dewpoint
12°C / 54°F -2°C / 28°F
Humidity Altimeter Pressure
38% 30.25" Hg 1024 hPa